createdAt,value
2023-02-01T00:01:10.059Z,49.50
2023-02-01T00:03:38.368Z,48.10
2023-02-01T00:06:06.623Z,46.80
2023-02-01T00:08:35.086Z,46.00
2023-02-01T00:11:09.731Z,45.10
2023-02-01T00:13:40.497Z,44.50
2023-02-01T00:16:17.805Z,43.80
2023-02-01T00:18:49.328Z,43.10
2023-02-01T00:21:19.696Z,42.90
2023-02-01T00:23:48.756Z,42.40
2023-02-01T00:26:27.497Z,41.90
2023-02-01T00:28:56.857Z,41.70
2023-02-01T00:31:27.057Z,41.10
2023-02-01T00:33:56.641Z,41.10
2023-02-01T00:36:25.088Z,40.50
2023-02-01T00:38:53.401Z,40.20
2023-02-01T00:41:23.368Z,40.10
2023-02-01T00:43:53.845Z,39.70
2023-02-01T00:46:23.794Z,39.10
2023-02-01T00:48:52.508Z,39.00
2023-02-01T00:51:22.164Z,38.60
2023-02-01T00:53:50.990Z,38.50
2023-02-01T00:56:19.326Z,40.70
2023-02-01T00:58:47.590Z,45.30
2023-02-01T01:01:21.759Z,48.50
2023-02-01T01:03:58.592Z,50.80
2023-02-01T01:06:29.552Z,52.60
2023-02-01T01:09:00.124Z,53.30
2023-02-01T01:11:31.287Z,53.90
2023-02-01T01:14:01.642Z,54.00
2023-02-01T01:16:32.363Z,50.50
2023-02-01T01:19:01.583Z,48.70
2023-02-01T01:21:30.022Z,49.80
2023-02-01T01:23:58.990Z,55.70
2023-02-01T01:26:31.796Z,57.50
2023-02-01T01:29:01.517Z,57.10
2023-02-01T01:31:30.419Z,56.50
2023-02-01T01:34:00.970Z,51.80
2023-02-01T01:36:30.911Z,49.80
2023-02-01T01:38:59.486Z,48.60
2023-02-01T01:41:32.317Z,47.50
2023-02-01T01:44:07.285Z,46.60
2023-02-01T01:46:37.303Z,45.50
2023-02-01T01:49:23.592Z,44.60
2023-02-01T01:51:56.050Z,44.30
2023-02-01T01:54:33.348Z,43.50
2023-02-01T01:57:11.113Z,42.60
2023-02-01T01:59:47.491Z,42.50
2023-02-01T02:02:15.869Z,41.80
2023-02-01T02:04:44.317Z,41.20
2023-02-01T02:07:20.964Z,40.90
2023-02-01T02:10:00.053Z,40.70
2023-02-01T02:12:29.435Z,40.20
2023-02-01T02:14:57.897Z,40.00
2023-02-01T02:17:47.755Z,40.70
2023-02-01T02:20:41.569Z,46.40
2023-02-01T02:23:34.995Z,49.90
2023-02-01T02:26:24.842Z,52.10
2023-02-01T02:29:14.805Z,54.60
2023-02-01T02:31:46.246Z,56.50
2023-02-01T02:34:19.572Z,57.60
2023-02-01T02:37:05.969Z,58.40
2023-02-01T02:40:00.912Z,59.00
2023-02-01T02:42:41.211Z,54.90
2023-02-01T02:45:20.234Z,51.90
2023-02-01T02:48:03.706Z,50.80
2023-02-01T02:50:36.740Z,49.50
2023-02-01T02:53:16.672Z,48.50
2023-02-01T02:55:46.015Z,47.70
2023-02-01T02:58:16.739Z,47.00
2023-02-01T03:00:47.590Z,46.40
2023-02-01T03:03:15.890Z,45.80
2023-02-01T03:05:49.428Z,45.20
2023-02-01T03:08:23.238Z,44.80
2023-02-01T03:11:10.935Z,44.50
2023-02-01T03:14:02.390Z,43.90
2023-02-01T03:16:41.839Z,43.50
2023-02-01T03:19:28.080Z,43.00
2023-02-01T03:22:09.927Z,42.60
2023-02-01T03:24:48.598Z,42.30
2023-02-01T03:27:31.959Z,42.00
2023-02-01T03:30:11.151Z,41.30
2023-02-01T03:32:44.095Z,40.70
2023-02-01T03:35:12.582Z,41.70
2023-02-01T03:37:40.958Z,45.30
2023-02-01T03:40:12.141Z,48.40
2023-02-01T03:42:46.836Z,51.20
2023-02-01T03:45:32.883Z,52.90
2023-02-01T03:48:04.171Z,54.50
2023-02-01T03:50:34.877Z,55.20
2023-02-01T03:53:14.701Z,55.20
2023-02-01T03:55:46.774Z,55.70
2023-02-01T03:58:18.742Z,51.30
2023-02-01T04:00:56.749Z,49.10
2023-02-01T04:03:26.249Z,51.00
2023-02-01T04:05:57.251Z,56.50
2023-02-01T04:08:28.987Z,58.10
2023-02-01T04:10:57.218Z,57.10
2023-02-01T04:13:25.310Z,56.70
2023-02-01T04:15:53.596Z,53.50
2023-02-01T04:18:21.826Z,50.80
2023-02-01T04:20:49.954Z,49.60
2023-02-01T04:23:18.125Z,48.40
2023-02-01T04:25:46.475Z,47.50
2023-02-01T04:28:14.785Z,46.50
2023-02-01T04:30:43.195Z,45.90
2023-02-01T04:33:11.450Z,44.70
2023-02-01T04:35:39.611Z,44.10
2023-02-01T04:38:08.073Z,43.60
2023-02-01T04:40:36.318Z,43.20
2023-02-01T04:43:04.599Z,42.80
2023-02-01T04:45:33.065Z,42.10
2023-02-01T04:48:01.279Z,41.80
2023-02-01T04:50:29.569Z,41.50
2023-02-01T04:52:57.843Z,40.90
2023-02-01T04:55:26.043Z,40.40
2023-02-01T04:57:54.338Z,39.90
2023-02-01T05:00:23.068Z,39.40
2023-02-01T05:02:51.493Z,41.20
2023-02-01T05:05:19.594Z,45.80
2023-02-01T05:07:48.266Z,49.50
2023-02-01T05:10:16.776Z,51.40
2023-02-01T05:12:46.144Z,53.20
2023-02-01T05:15:14.573Z,54.10
2023-02-01T05:17:42.857Z,54.70
2023-02-01T05:20:11.755Z,54.80
2023-02-01T05:22:40.106Z,54.50
2023-02-01T05:25:08.759Z,52.90
2023-02-01T05:27:37.262Z,50.20
2023-02-01T05:30:10.272Z,48.90
2023-02-01T05:32:38.452Z,55.10
2023-02-01T05:35:07.139Z,58.00
2023-02-01T05:37:35.001Z,59.20
2023-02-01T05:40:03.246Z,57.90
2023-02-01T05:42:31.450Z,57.90
2023-02-01T05:44:59.724Z,54.10
2023-02-01T05:47:27.891Z,51.80
2023-02-01T05:49:56.189Z,50.30
2023-02-01T05:52:24.528Z,49.50
2023-02-01T05:54:52.592Z,48.20
2023-02-01T05:57:20.849Z,47.40
2023-02-01T05:59:49.324Z,46.70
2023-02-01T06:02:18.153Z,45.70
2023-02-01T06:04:46.487Z,45.10
2023-02-01T06:07:17.627Z,44.90
2023-02-01T06:09:46.034Z,49.50
2023-02-01T06:12:14.467Z,54.10
2023-02-01T06:14:42.835Z,56.10
2023-02-01T06:17:11.091Z,57.90
2023-02-01T06:19:39.507Z,59.70
2023-02-01T06:22:07.846Z,61.00
2023-02-01T06:24:36.235Z,61.20
2023-02-01T06:27:04.498Z,61.50
2023-02-01T06:29:32.851Z,61.60
2023-02-01T06:32:01.184Z,61.30
2023-02-01T06:34:29.634Z,57.50
2023-02-01T06:36:57.921Z,54.50
2023-02-01T06:39:26.299Z,52.60
2023-02-01T06:41:54.515Z,51.40
2023-02-01T06:44:22.679Z,50.00
2023-02-01T06:46:51.017Z,48.60
2023-02-01T06:49:19.341Z,47.70
2023-02-01T06:51:47.831Z,46.80
2023-02-01T06:54:15.982Z,46.30
2023-02-01T06:56:44.235Z,45.90
2023-02-01T06:59:12.884Z,45.40
2023-02-01T07:01:40.879Z,45.70
2023-02-01T07:04:12.603Z,49.80
2023-02-01T07:06:42.031Z,53.90
2023-02-01T07:09:10.668Z,57.00
2023-02-01T07:11:39.087Z,60.20
2023-02-01T07:14:07.254Z,62.90
2023-02-01T07:16:35.785Z,65.70
2023-02-01T07:19:05.243Z,68.20
2023-02-01T07:21:33.659Z,71.40
2023-02-01T07:24:02.016Z,71.90
2023-02-01T07:26:30.310Z,74.10
2023-02-01T07:28:58.555Z,66.70
2023-02-01T07:31:26.970Z,63.40
2023-02-01T07:33:55.130Z,64.50
2023-02-01T07:36:23.525Z,62.70
2023-02-01T07:38:51.946Z,61.80
2023-02-01T07:41:20.065Z,60.10
2023-02-01T07:43:48.344Z,59.50
2023-02-01T07:46:17.006Z,59.00
2023-02-01T07:48:45.276Z,58.50
2023-02-01T07:51:16.601Z,57.10
2023-02-01T07:53:45.663Z,55.80
2023-02-01T07:56:17.073Z,54.80
2023-02-01T07:58:50.151Z,53.70
2023-02-01T08:01:23.710Z,52.60
2023-02-01T08:03:57.627Z,52.00
2023-02-01T08:06:26.684Z,51.20
2023-02-01T08:08:55.857Z,50.90
2023-02-01T08:11:25.755Z,50.40
2023-02-01T08:13:54.827Z,49.70
2023-02-01T08:16:24.083Z,49.10
2023-02-01T08:18:53.557Z,48.90
2023-02-01T08:21:29.602Z,48.60
2023-02-01T08:23:57.898Z,53.00
2023-02-01T08:26:27.487Z,57.70
2023-02-01T08:28:58.078Z,60.80
2023-02-01T08:31:28.239Z,63.20
2023-02-01T08:33:59.495Z,65.10
2023-02-01T08:36:32.661Z,66.50
2023-02-01T08:39:01.063Z,67.70
2023-02-01T08:41:31.405Z,68.30
2023-02-01T08:43:59.918Z,69.80
2023-02-01T08:46:28.209Z,69.60
2023-02-01T08:48:56.553Z,70.10
2023-02-01T08:51:25.781Z,69.30
2023-02-01T08:53:56.505Z,64.30
2023-02-01T08:56:24.984Z,61.70
2023-02-01T08:58:53.747Z,60.80
2023-02-01T09:01:22.020Z,58.40
2023-02-01T09:03:50.516Z,57.10
2023-02-01T09:06:18.921Z,56.30
2023-02-01T09:08:47.409Z,55.30
2023-02-01T09:11:18.456Z,54.30
2023-02-01T09:13:47.190Z,53.60
2023-02-01T09:16:21.691Z,52.80
2023-02-01T09:18:55.977Z,52.80
2023-02-01T09:21:36.736Z,52.10
2023-02-01T09:24:04.725Z,51.70
2023-02-01T09:26:33.270Z,51.50
2023-02-01T09:29:02.436Z,50.80
2023-02-01T09:31:31.136Z,53.50
2023-02-01T09:33:59.622Z,53.80
2023-02-01T09:36:30.108Z,51.90
2023-02-01T09:39:00.096Z,51.30
2023-02-01T09:41:49.784Z,50.60
2023-02-01T09:44:48.017Z,50.60
2023-02-01T09:47:20.038Z,50.00
2023-02-01T09:50:04.958Z,49.30
2023-02-01T09:53:06.361Z,52.70
2023-02-01T09:55:50.783Z,57.80
2023-02-01T09:58:32.105Z,62.00
2023-02-01T10:01:02.964Z,64.10
2023-02-01T10:03:35.928Z,65.90
2023-02-01T10:06:30.127Z,67.60
2023-02-01T10:09:18.671Z,69.10
2023-02-01T10:12:05.439Z,69.20
2023-02-01T10:14:48.848Z,70.40
2023-02-01T10:17:26.551Z,71.00
2023-02-01T10:20:22.721Z,66.90
2023-02-01T10:23:19.173Z,62.60
2023-02-01T10:26:02.256Z,60.50
2023-02-01T10:28:38.485Z,58.60
2023-02-01T10:31:09.812Z,57.50
2023-02-01T10:33:54.048Z,56.60
2023-02-01T10:36:36.401Z,55.00
2023-02-01T10:39:06.217Z,55.00
2023-02-01T10:41:41.005Z,53.60
2023-02-01T10:44:18.281Z,53.20
2023-02-01T18:23:04.942Z,40.40
2023-02-01T18:25:32.981Z,40.40
2023-02-01T18:28:01.217Z,40.30
2023-02-01T18:30:32.295Z,40.20
2023-02-01T18:33:00.624Z,39.90
2023-02-01T18:35:33.885Z,40.10
2023-02-01T18:38:02.228Z,40.40
2023-02-01T18:40:40.503Z,40.20
2023-02-01T18:43:11.783Z,39.90
2023-02-01T18:45:42.629Z,41.70
2023-02-01T18:48:12.182Z,45.30
2023-02-01T18:50:43.058Z,47.00
2023-02-01T18:53:20.201Z,47.70
2023-02-01T18:55:49.306Z,48.00
2023-02-01T18:58:18.876Z,47.40
2023-02-01T19:00:47.928Z,47.40
2023-02-01T19:03:17.389Z,47.30
2023-02-01T19:05:46.909Z,47.20
2023-02-01T19:08:15.509Z,46.70
2023-02-01T19:10:43.936Z,45.20
2023-02-01T19:13:15.167Z,44.50
2023-02-01T19:15:44.049Z,43.90
2023-02-01T19:18:12.414Z,43.20
2023-02-01T19:20:40.851Z,42.70
2023-02-01T19:23:09.811Z,42.10
2023-02-01T19:25:38.993Z,41.70
2023-02-01T19:28:07.342Z,41.50
2023-02-01T19:30:35.973Z,41.10
2023-02-01T19:33:04.460Z,41.00
2023-02-01T19:35:32.853Z,40.80
2023-02-01T19:38:01.008Z,40.70
2023-02-01T19:40:29.432Z,40.20
2023-02-01T19:42:57.776Z,40.30
2023-02-01T19:45:26.346Z,40.40
2023-02-01T19:47:54.767Z,40.10
2023-02-01T19:50:23.387Z,40.10
2023-02-01T19:52:51.615Z,40.00
2023-02-01T19:55:19.864Z,39.80
2023-02-01T19:57:48.143Z,39.40
2023-02-01T20:00:15.778Z,39.30
2023-02-01T20:02:44.266Z,39.00
2023-02-01T20:05:12.470Z,39.20
2023-02-01T20:07:40.750Z,39.50
2023-02-01T20:10:09.791Z,39.90
2023-02-01T20:12:37.949Z,39.30
2023-02-01T20:15:08.792Z,39.00
2023-02-01T20:17:37.339Z,38.60
2023-02-01T20:20:06.173Z,38.50
2023-02-01T20:22:34.363Z,38.60
2023-02-01T20:25:02.778Z,38.60
2023-02-01T20:27:32.082Z,38.40
2023-02-01T20:30:00.430Z,38.40
2023-02-01T20:32:28.737Z,38.40
2023-02-01T20:34:57.360Z,38.30
2023-02-01T20:37:25.750Z,38.20
2023-02-01T20:39:54.042Z,37.90
2023-02-01T20:42:22.244Z,38.40
2023-02-01T20:44:50.717Z,38.40
2023-02-01T20:47:19.140Z,38.20
2023-02-01T20:49:47.407Z,38.00
2023-02-01T20:52:15.766Z,38.30
2023-02-01T20:54:44.122Z,38.60
2023-02-01T20:57:12.310Z,38.40
2023-02-01T20:59:40.723Z,38.40
2023-02-01T21:02:11.390Z,38.20
2023-02-01T21:04:39.764Z,38.00
2023-02-01T21:07:07.986Z,37.80
2023-02-01T21:09:36.398Z,38.00
2023-02-01T21:12:05.474Z,38.00
2023-02-01T21:14:33.674Z,38.00
2023-02-01T21:17:01.968Z,38.20
2023-02-01T21:19:30.307Z,38.00
2023-02-01T21:21:58.524Z,38.20
2023-02-01T21:24:27.875Z,38.00
2023-02-01T21:26:56.188Z,38.10
2023-02-01T21:29:24.606Z,37.80
2023-02-01T21:31:52.823Z,37.90
2023-02-01T21:34:21.186Z,37.90
2023-02-01T21:36:49.291Z,37.50
2023-02-01T21:39:17.704Z,37.30
2023-02-01T21:41:46.337Z,37.00
2023-02-01T21:44:14.822Z,36.60
2023-02-01T21:46:44.394Z,38.90
2023-02-01T21:49:13.061Z,43.40
2023-02-01T21:51:41.851Z,46.50
2023-02-01T21:54:11.513Z,49.00
2023-02-01T21:56:40.681Z,50.70
2023-02-01T21:59:09.351Z,51.50
2023-02-01T22:01:39.388Z,52.40
2023-02-01T22:04:08.507Z,53.20
2023-02-01T22:06:41.968Z,51.80
2023-02-01T22:09:22.041Z,48.10
2023-02-01T22:11:52.609Z,46.60
2023-02-01T22:14:21.612Z,52.00
2023-02-01T22:16:50.492Z,55.40
2023-02-01T22:19:19.110Z,54.90
2023-02-01T22:21:48.645Z,54.70
2023-02-01T22:24:19.128Z,50.10
2023-02-01T22:26:47.917Z,48.50
2023-02-01T22:29:15.855Z,47.90
2023-02-01T22:31:44.586Z,46.20
2023-02-01T22:34:12.989Z,45.50
2023-02-01T22:36:42.394Z,44.90
2023-02-01T22:39:11.308Z,44.30
2023-02-01T22:41:39.518Z,43.80
2023-02-01T22:44:07.918Z,43.20
2023-02-01T22:46:36.381Z,42.60
2023-02-01T22:49:05.147Z,42.10
2023-02-01T22:51:34.072Z,41.70
2023-02-01T22:54:05.480Z,41.30
2023-02-01T22:56:37.948Z,41.50
2023-02-01T22:59:10.242Z,40.60
2023-02-01T23:01:38.624Z,40.40
2023-02-01T23:04:09.744Z,40.00
2023-02-01T23:06:38.212Z,39.80
2023-02-01T23:09:26.313Z,39.70
2023-02-01T23:11:55.368Z,39.50
2023-02-01T23:14:24.106Z,39.20
2023-02-01T23:16:52.388Z,39.40
2023-02-01T23:19:21.063Z,39.00
2023-02-01T23:21:49.357Z,38.90
2023-02-01T23:24:17.786Z,38.90
2023-02-01T23:26:46.078Z,38.80
2023-02-01T23:29:18.324Z,38.80
2023-02-01T23:31:46.752Z,38.60
2023-02-01T23:34:15.199Z,38.40
2023-02-01T23:36:43.480Z,38.50
2023-02-01T23:39:11.533Z,38.60
2023-02-01T23:41:40.023Z,38.10
2023-02-01T23:44:08.377Z,37.90
2023-02-01T23:46:42.085Z,38.00
2023-02-01T23:49:10.938Z,39.70
2023-02-01T23:51:39.247Z,44.50
2023-02-01T23:54:09.177Z,48.20
2023-02-01T23:56:42.807Z,50.50
2023-02-01T23:59:15.599Z,52.30
